MSC Orchestra — 3EJF3 — position and weather

sailwx.info

Track history (hours):
 
Tides and Currents Weather Stations Pressure Air Temp Water Temp Dewpoint Dewpoint Depression Visibility Wind Speed Wind Dir Waves Ship Positions

MSC Orchestra

Last reported at 2016-Aug-31 02:13 UTC. Time now 2016-Aug-31 04:19 UTC.
Position N 36°20' E 024°53'.

Length 292 m; draft 7.8 m.

Type: Ship. MMSI: 372497000.

Date/timePositionNaut miles runAvg speedWind from/ knotsBaromVisibWave heightAir tempDewpointWater temp
2016-Aug-31 02:13N 36°20' E 024°53'3017.4
2016-Aug-31 00:29N 36°20' E 024°15'1616.9
2016-Aug-30 23:33N 36°20' E 023°56'2217.1
2016-Aug-30 22:16N 36°20' E 023°29'1317.7
2016-Aug-30 21:33N 36°20' E 023°13'63313.1
2016-Aug-28 21:12N 44°11' E 013°58'1320.1
2016-Aug-28 20:34N 44°21' E 013°48'2720.3
2016-Aug-28 19:15N 44°44' E 013°28'2120.1
2016-Aug-28 18:11N 45°00' E 013°09'1219.6
2016-Aug-28 17:33N 45°09' E 012°56'1919.4
2016-Aug-28 16:34N 45°21' E 012°35'1111.1
2016-Aug-28 15:33N 45°26' E 012°21'2 1.4
2016-Aug-28 14:26N 45°26' E 012°19'0 0.0
2016-Aug-28 13:32N 45°26' E 012°19'0 0.0
2016-Aug-28 12:31N 45°26' E 012°19'0 0.0
2016-Aug-28 11:28N 45°26' E 012°19'0 0.0
2016-Aug-28 10:33N 45°26' E 012°19'0 0.0
2016-Aug-28 09:33N 45°26' E 012°19'0 0.0
2016-Aug-28 08:32N 45°26' E 012°19'0 0.0
2016-Aug-28 07:32N 45°26' E 012°19'1 0.6
2016-Aug-28 06:33N 45°26' E 012°19'6 6.1
2016-Aug-28 05:33N 45°24' E 012°28'1616.2
2016-Aug-28 04:34N 45°16' E 012°47'2019.7
2016-Aug-28 03:34N 45°03' E 013°08'1919.2
2016-Aug-28 02:34N 44°50' E 013°29'2019.7
2016-Aug-28 01:34N 44°34' E 013°44'2019.7
2016-Aug-28 00:33N 44°17' E 013°59'2120.0
2016-Aug-27 23:30N 44°00' E 014°17'6620.5
2016-Aug-27 20:17N 43°09' E 015°14'1521.0
2016-Aug-27 19:33N 42°58' E 015°28'2121.2
2016-Aug-27 18:33N 42°49' E 015°55'10521.0
2016-Aug-27 13:33N 42°25' E 018°14'1515.1
2016-Aug-27 12:33N 42°26' E 018°34'7 7.1
2016-Aug-27 11:33N 42°29' E 018°43'3 3.4
2016-Aug-27 10:33N 42°26' E 018°46'0 0.0
2016-Aug-27 09:33N 42°26' E 018°46'0 0.0
2016-Aug-27 08:33N 42°26' E 018°46'0 0.0
2016-Aug-27 07:32N 42°26' E 018°46'0 0.0
2016-Aug-27 06:32N 42°26' E 018°46'0 0.0
2016-Aug-27 04:33N 42°26' E 018°46'5 4.8
2016-Aug-27 03:33N 42°26' E 018°39'7 6.9
2016-Aug-27 02:33N 42°21' E 018°34'1515.6
2016-Aug-27 01:33N 42°06' E 018°38'1616.2
2016-Aug-27 00:33N 41°50' E 018°43'34710.5
2016-Aug-25 15:33N 37°28' E 023°40'1918.8
2016-Aug-25 14:33N 37°47' E 023°38'9 9.1
2016-Aug-25 13:31N 37°56' E 023°38'0 0.0
2016-Aug-25 12:31N 37°56' E 023°38'0 0.0
2016-Aug-25 11:31N 37°56' E 023°38'0 0.0
2016-Aug-25 10:30N 37°56' E 023°38'0 0.0
2016-Aug-25 09:33N 37°56' E 023°38'0 0.0
2016-Aug-25 08:32N 37°56' E 023°38'0 0.0
2016-Aug-25 07:32N 37°56' E 023°38'0 0.0
2016-Aug-25 06:31N 37°56' E 023°38'0 0.0
2016-Aug-25 04:34N 37°56' E 023°38'0 0.0
2016-Aug-25 03:33N 37°56' E 023°38'0 0.0
2016-Aug-25 02:33N 37°56' E 023°38'0 0.0
2016-Aug-25 01:33N 37°56' E 023°38'7 6.7
2016-Aug-25 00:33N 37°50' E 023°40'1413.8
2016-Aug-24 23:33N 37°37' E 023°46'1211.9
2016-Aug-24 22:33N 37°25' E 023°49'1212.1
2016-Aug-24 21:33N 37°14' E 023°54'  
2016-Aug-21 17:31N 45°07' E 012°58'1919.6
2016-Aug-21 16:33N 45°19' E 012°38'1313.1
2016-Aug-21 15:33N 45°26' E 012°21'2 1.9
2016-Aug-21 14:33N 45°26' E 012°19'0 0.0
2016-Aug-21 13:17N 45°26' E 012°19'0 0.0
2016-Aug-21 12:17N 45°26' E 012°19'0 0.0
2016-Aug-21 11:32N 45°26' E 012°19'0 0.0
2016-Aug-21 10:28N 45°26' E 012°19'0 0.0
2016-Aug-21 09:31N 45°26' E 012°19'0 0.0
2016-Aug-21 08:33N 45°26' E 012°19'0 0.0
2016-Aug-21 07:30N 45°26' E 012°19'0 0.2
2016-Aug-21 06:34N 45°26' E 012°18'6 6.5
2016-Aug-21 05:34N 45°25' E 012°27'1818.2
2016-Aug-21 04:33N 45°15' E 012°49'2019.6
2016-Aug-21 03:34N 45°02' E 013°10'1919.1
2016-Aug-21 02:33N 44°49' E 013°30'  
Track history (hours):
 
Tides and Currents Weather Stations Pressure Air Temp Water Temp Dewpoint Dewpoint Depression Visibility Wind Speed Wind Dir Waves Ship Positions

MSC Orchestra

Last reported at 2016-Aug-31 02:13 UTC. Time now 2016-Aug-31 04:19 UTC.
Position N 36°20' E 024°53'.

Length 292 m; draft 7.8 m.

Type: Ship. MMSI: 372497000.

Date/timePositionNaut miles runAvg speedWind from/ knotsBaromVisibWave heightAir tempDewpointWater temp
2016-Aug-31 02:13N 36°20' E 024°53'3017.4
2016-Aug-31 00:29N 36°20' E 024°15'1616.9
2016-Aug-30 23:33N 36°20' E 023°56'2217.1
2016-Aug-30 22:16N 36°20' E 023°29'1317.7
2016-Aug-30 21:33N 36°20' E 023°13'63313.1
2016-Aug-28 21:12N 44°11' E 013°58'1320.1
2016-Aug-28 20:34N 44°21' E 013°48'2720.3
2016-Aug-28 19:15N 44°44' E 013°28'2120.1
2016-Aug-28 18:11N 45°00' E 013°09'1219.6
2016-Aug-28 17:33N 45°09' E 012°56'1919.4
2016-Aug-28 16:34N 45°21' E 012°35'1111.1
2016-Aug-28 15:33N 45°26' E 012°21'2 1.4
2016-Aug-28 14:26N 45°26' E 012°19'0 0.0
2016-Aug-28 13:32N 45°26' E 012°19'0 0.0
2016-Aug-28 12:31N 45°26' E 012°19'0 0.0
2016-Aug-28 11:28N 45°26' E 012°19'0 0.0
2016-Aug-28 10:33N 45°26' E 012°19'0 0.0
2016-Aug-28 09:33N 45°26' E 012°19'0 0.0
2016-Aug-28 08:32N 45°26' E 012°19'0 0.0
2016-Aug-28 07:32N 45°26' E 012°19'1 0.6
2016-Aug-28 06:33N 45°26' E 012°19'6 6.1
2016-Aug-28 05:33N 45°24' E 012°28'1616.2
2016-Aug-28 04:34N 45°16' E 012°47'2019.7
2016-Aug-28 03:34N 45°03' E 013°08'1919.2
2016-Aug-28 02:34N 44°50' E 013°29'2019.7
2016-Aug-28 01:34N 44°34' E 013°44'2019.7
2016-Aug-28 00:33N 44°17' E 013°59'2120.0
2016-Aug-27 23:30N 44°00' E 014°17'6620.5
2016-Aug-27 20:17N 43°09' E 015°14'1521.0
2016-Aug-27 19:33N 42°58' E 015°28'2121.2
2016-Aug-27 18:33N 42°49' E 015°55'10521.0
2016-Aug-27 13:33N 42°25' E 018°14'1515.1
2016-Aug-27 12:33N 42°26' E 018°34'7 7.1
2016-Aug-27 11:33N 42°29' E 018°43'3 3.4
2016-Aug-27 10:33N 42°26' E 018°46'0 0.0
2016-Aug-27 09:33N 42°26' E 018°46'0 0.0
2016-Aug-27 08:33N 42°26' E 018°46'0 0.0
2016-Aug-27 07:32N 42°26' E 018°46'0 0.0
2016-Aug-27 06:32N 42°26' E 018°46'0 0.0
2016-Aug-27 04:33N 42°26' E 018°46'5 4.8
2016-Aug-27 03:33N 42°26' E 018°39'7 6.9
2016-Aug-27 02:33N 42°21' E 018°34'1515.6
2016-Aug-27 01:33N 42°06' E 018°38'1616.2
2016-Aug-27 00:33N 41°50' E 018°43'34710.5
2016-Aug-25 15:33N 37°28' E 023°40'1918.8
2016-Aug-25 14:33N 37°47' E 023°38'9 9.1
2016-Aug-25 13:31N 37°56' E 023°38'0 0.0
2016-Aug-25 12:31N 37°56' E 023°38'0 0.0
2016-Aug-25 11:31N 37°56' E 023°38'0 0.0
2016-Aug-25 10:30N 37°56' E 023°38'0 0.0
2016-Aug-25 09:33N 37°56' E 023°38'0 0.0
2016-Aug-25 08:32N 37°56' E 023°38'0 0.0
2016-Aug-25 07:32N 37°56' E 023°38'0 0.0
2016-Aug-25 06:31N 37°56' E 023°38'0 0.0
2016-Aug-25 04:34N 37°56' E 023°38'0 0.0
2016-Aug-25 03:33N 37°56' E 023°38'0 0.0
2016-Aug-25 02:33N 37°56' E 023°38'0 0.0
2016-Aug-25 01:33N 37°56' E 023°38'7 6.7
2016-Aug-25 00:33N 37°50' E 023°40'1413.8
2016-Aug-24 23:33N 37°37' E 023°46'1211.9
2016-Aug-24 22:33N 37°25' E 023°49'1212.1
2016-Aug-24 21:33N 37°14' E 023°54'  
2016-Aug-21 17:31N 45°07' E 012°58'1919.6
2016-Aug-21 16:33N 45°19' E 012°38'1313.1
2016-Aug-21 15:33N 45°26' E 012°21'2 1.9
2016-Aug-21 14:33N 45°26' E 012°19'0 0.0
2016-Aug-21 13:17N 45°26' E 012°19'0 0.0
2016-Aug-21 12:17N 45°26' E 012°19'0 0.0
2016-Aug-21 11:32N 45°26' E 012°19'0 0.0
2016-Aug-21 10:28N 45°26' E 012°19'0 0.0
2016-Aug-21 09:31N 45°26' E 012°19'0 0.0
2016-Aug-21 08:33N 45°26' E 012°19'0 0.0
2016-Aug-21 07:30N 45°26' E 012°19'0 0.2
2016-Aug-21 06:34N 45°26' E 012°18'6 6.5
2016-Aug-21 05:34N 45°25' E 012°27'1818.2
2016-Aug-21 04:33N 45°15' E 012°49'2019.6
2016-Aug-21 03:34N 45°02' E 013°10'1919.1
2016-Aug-21 02:33N 44°49' E 013°30'  

Dump ship's entire track history